sensor_id;sensor_type;location;lat;lon;timestamp;P1;durP1;ratioP1;P2;durP2;ratioP2
4464;SDS011;2245;48.136;13.428;2023-02-15T00:00:33;19.10;;;10.63;;
4464;SDS011;2245;48.136;13.428;2023-02-15T00:03:00;17.77;;;9.40;;
4464;SDS011;2245;48.136;13.428;2023-02-15T00:05:28;17.90;;;9.70;;
4464;SDS011;2245;48.136;13.428;2023-02-15T00:07:56;17.40;;;10.03;;
4464;SDS011;2245;48.136;13.428;2023-02-15T00:10:23;25.03;;;10.70;;
4464;SDS011;2245;48.136;13.428;2023-02-15T00:12:50;20.13;;;10.80;;
4464;SDS011;2245;48.136;13.428;2023-02-15T00:15:17;24.90;;;11.30;;
4464;SDS011;2245;48.136;13.428;2023-02-15T00:17:44;31.60;;;11.07;;
4464;SDS011;2245;48.136;13.428;2023-02-15T00:20:11;19.63;;;12.53;;
4464;SDS011;2245;48.136;13.428;2023-02-15T00:22:39;23.90;;;10.07;;
4464;SDS011;2245;48.136;13.428;2023-02-15T00:25:06;23.40;;;11.00;;
4464;SDS011;2245;48.136;13.428;2023-02-15T00:27:33;19.73;;;12.53;;
4464;SDS011;2245;48.136;13.428;2023-02-15T00:30:00;22.07;;;11.90;;
4464;SDS011;2245;48.136;13.428;2023-02-15T00:32:27;20.27;;;12.67;;
4464;SDS011;2245;48.136;13.428;2023-02-15T00:34:54;21.47;;;10.47;;
4464;SDS011;2245;48.136;13.428;2023-02-15T00:37:21;27.30;;;12.37;;
4464;SDS011;2245;48.136;13.428;2023-02-15T00:39:49;25.30;;;11.83;;
4464;SDS011;2245;48.136;13.428;2023-02-15T00:42:17;26.93;;;11.97;;
4464;SDS011;2245;48.136;13.428;2023-02-15T00:44:44;24.47;;;11.43;;
4464;SDS011;2245;48.136;13.428;2023-02-15T00:47:10;18.67;;;11.13;;
4464;SDS011;2245;48.136;13.428;2023-02-15T00:49:37;20.30;;;11.13;;
4464;SDS011;2245;48.136;13.428;2023-02-15T00:52:04;23.20;;;11.30;;
4464;SDS011;2245;48.136;13.428;2023-02-15T00:54:31;18.27;;;11.30;;
4464;SDS011;2245;48.136;13.428;2023-02-15T00:57:01;21.27;;;10.23;;
4464;SDS011;2245;48.136;13.428;2023-02-15T00:59:27;26.60;;;11.87;;
4464;SDS011;2245;48.136;13.428;2023-02-15T01:01:54;30.83;;;13.57;;
4464;SDS011;2245;48.136;13.428;2023-02-15T01:04:21;21.00;;;11.17;;
4464;SDS011;2245;48.136;13.428;2023-02-15T01:06:48;24.63;;;12.10;;
4464;SDS011;2245;48.136;13.428;2023-02-15T01:09:15;20.27;;;11.50;;
4464;SDS011;2245;48.136;13.428;2023-02-15T01:11:42;23.53;;;10.93;;
4464;SDS011;2245;48.136;13.428;2023-02-15T01:14:10;21.67;;;10.93;;
4464;SDS011;2245;48.136;13.428;2023-02-15T01:16:38;23.30;;;9.23;;
4464;SDS011;2245;48.136;13.428;2023-02-15T01:19:05;20.83;;;9.13;;
4464;SDS011;2245;48.136;13.428;2023-02-15T01:21:32;23.27;;;11.30;;
4464;SDS011;2245;48.136;13.428;2023-02-15T01:23:59;26.23;;;11.47;;
4464;SDS011;2245;48.136;13.428;2023-02-15T01:26:26;18.87;;;10.50;;
4464;SDS011;2245;48.136;13.428;2023-02-15T01:28:53;20.40;;;10.67;;
4464;SDS011;2245;48.136;13.428;2023-02-15T01:31:21;22.17;;;11.07;;
4464;SDS011;2245;48.136;13.428;2023-02-15T01:33:48;29.70;;;12.10;;
4464;SDS011;2245;48.136;13.428;2023-02-15T01:36:15;26.80;;;12.10;;
4464;SDS011;2245;48.136;13.428;2023-02-15T01:38:42;19.60;;;11.03;;
4464;SDS011;2245;48.136;13.428;2023-02-15T01:41:09;26.43;;;12.10;;
4464;SDS011;2245;48.136;13.428;2023-02-15T01:43:52;23.53;;;11.80;;
4464;SDS011;2245;48.136;13.428;2023-02-15T01:46:22;31.33;;;10.77;;
4464;SDS011;2245;48.136;13.428;2023-02-15T01:48:51;19.43;;;10.57;;
4464;SDS011;2245;48.136;13.428;2023-02-15T01:51:21;147.07;;;13.80;;
4464;SDS011;2245;48.136;13.428;2023-02-15T01:53:50;24.57;;;9.70;;
4464;SDS011;2245;48.136;13.428;2023-02-15T01:56:19;39.97;;;11.57;;
4464;SDS011;2245;48.136;13.428;2023-02-15T01:58:48;68.70;;;10.90;;
4464;SDS011;2245;48.136;13.428;2023-02-15T02:01:16;30.43;;;11.27;;
4464;SDS011;2245;48.136;13.428;2023-02-15T02:03:46;24.20;;;11.33;;
4464;SDS011;2245;48.136;13.428;2023-02-15T02:06:20;27.20;;;10.90;;
4464;SDS011;2245;48.136;13.428;2023-02-15T02:08:47;26.57;;;12.27;;
4464;SDS011;2245;48.136;13.428;2023-02-15T02:11:14;23.90;;;9.77;;
4464;SDS011;2245;48.136;13.428;2023-02-15T02:13:42;20.20;;;11.20;;
4464;SDS011;2245;48.136;13.428;2023-02-15T02:16:10;34.57;;;14.43;;
4464;SDS011;2245;48.136;13.428;2023-02-15T02:18:41;24.23;;;12.17;;
4464;SDS011;2245;48.136;13.428;2023-02-15T02:21:38;22.37;;;11.03;;
4464;SDS011;2245;48.136;13.428;2023-02-15T02:24:35;31.20;;;13.07;;
4464;SDS011;2245;48.136;13.428;2023-02-15T02:27:32;24.00;;;12.20;;
4464;SDS011;2245;48.136;13.428;2023-02-15T02:33:20;31.03;;;11.90;;
4464;SDS011;2245;48.136;13.428;2023-02-15T02:35:57;33.73;;;12.40;;
4464;SDS011;2245;48.136;13.428;2023-02-15T02:38:32;26.80;;;12.03;;
4464;SDS011;2245;48.136;13.428;2023-02-15T02:41:06;23.93;;;11.77;;
4464;SDS011;2245;48.136;13.428;2023-02-15T02:43:37;31.77;;;13.30;;
4464;SDS011;2245;48.136;13.428;2023-02-15T02:46:10;30.13;;;12.77;;
4464;SDS011;2245;48.136;13.428;2023-02-15T02:48:42;25.07;;;11.57;;
4464;SDS011;2245;48.136;13.428;2023-02-15T02:51:09;31.87;;;12.50;;
4464;SDS011;2245;48.136;13.428;2023-02-15T02:53:35;29.67;;;13.13;;
4464;SDS011;2245;48.136;13.428;2023-02-15T02:56:03;21.10;;;11.33;;
4464;SDS011;2245;48.136;13.428;2023-02-15T02:58:35;29.83;;;13.17;;
4464;SDS011;2245;48.136;13.428;2023-02-15T03:01:05;30.33;;;12.90;;
4464;SDS011;2245;48.136;13.428;2023-02-15T03:03:35;33.13;;;13.83;;
4464;SDS011;2245;48.136;13.428;2023-02-15T03:06:05;22.63;;;11.20;;
4464;SDS011;2245;48.136;13.428;2023-02-15T03:08:36;25.80;;;11.37;;
4464;SDS011;2245;48.136;13.428;2023-02-15T03:11:08;21.30;;;8.90;;
4464;SDS011;2245;48.136;13.428;2023-02-15T03:13:35;16.90;;;8.40;;
4464;SDS011;2245;48.136;13.428;2023-02-15T03:16:02;18.77;;;9.30;;
4464;SDS011;2245;48.136;13.428;2023-02-15T03:18:45;18.57;;;8.90;;
4464;SDS011;2245;48.136;13.428;2023-02-15T03:21:19;16.53;;;8.63;;
4464;SDS011;2245;48.136;13.428;2023-02-15T03:23:49;18.80;;;9.27;;
4464;SDS011;2245;48.136;13.428;2023-02-15T03:26:18;22.77;;;10.37;;
4464;SDS011;2245;48.136;13.428;2023-02-15T03:28:45;23.63;;;9.73;;
4464;SDS011;2245;48.136;13.428;2023-02-15T03:31:14;18.13;;;8.10;;
4464;SDS011;2245;48.136;13.428;2023-02-15T03:33:42;22.47;;;9.80;;
4464;SDS011;2245;48.136;13.428;2023-02-15T03:36:14;22.83;;;10.70;;
4464;SDS011;2245;48.136;13.428;2023-02-15T03:38:47;22.40;;;10.00;;
4464;SDS011;2245;48.136;13.428;2023-02-15T03:41:18;16.77;;;8.47;;
4464;SDS011;2245;48.136;13.428;2023-02-15T03:43:48;21.90;;;10.87;;
4464;SDS011;2245;48.136;13.428;2023-02-15T03:46:18;23.33;;;10.00;;
4464;SDS011;2245;48.136;13.428;2023-02-15T03:48:49;29.43;;;12.70;;
4464;SDS011;2245;48.136;13.428;2023-02-15T03:51:20;29.70;;;11.57;;
4464;SDS011;2245;48.136;13.428;2023-02-15T03:54:02;24.00;;;11.13;;
4464;SDS011;2245;48.136;13.428;2023-02-15T03:56:29;23.97;;;11.40;;
4464;SDS011;2245;48.136;13.428;2023-02-15T03:58:57;35.20;;;11.70;;
4464;SDS011;2245;48.136;13.428;2023-02-15T04:01:43;26.13;;;10.80;;
4464;SDS011;2245;48.136;13.428;2023-02-15T04:04:33;37.07;;;15.60;;
4464;SDS011;2245;48.136;13.428;2023-02-15T04:07:02;41.73;;;15.03;;
4464;SDS011;2245;48.136;13.428;2023-02-15T04:09:30;42.60;;;13.37;;
4464;SDS011;2245;48.136;13.428;2023-02-15T04:12:14;46.80;;;12.37;;
4464;SDS011;2245;48.136;13.428;2023-02-15T04:14:41;29.30;;;11.03;;
4464;SDS011;2245;48.136;13.428;2023-02-15T04:17:26;44.73;;;10.20;;
4464;SDS011;2245;48.136;13.428;2023-02-15T04:19:53;40.83;;;13.00;;
4464;SDS011;2245;48.136;13.428;2023-02-15T04:22:38;34.97;;;11.13;;
4464;SDS011;2245;48.136;13.428;2023-02-15T04:25:22;45.83;;;11.27;;
4464;SDS011;2245;48.136;13.428;2023-02-15T04:27:50;28.53;;;10.47;;
4464;SDS011;2245;48.136;13.428;2023-02-15T04:30:19;27.73;;;10.60;;
4464;SDS011;2245;48.136;13.428;2023-02-15T04:32:47;29.20;;;10.00;;
4464;SDS011;2245;48.136;13.428;2023-02-15T04:35:14;32.50;;;12.17;;
4464;SDS011;2245;48.136;13.428;2023-02-15T04:37:43;36.23;;;12.20;;
4464;SDS011;2245;48.136;13.428;2023-02-15T04:40:10;29.87;;;11.80;;
4464;SDS011;2245;48.136;13.428;2023-02-15T04:42:38;22.63;;;11.13;;
4464;SDS011;2245;48.136;13.428;2023-02-15T04:45:05;21.47;;;9.80;;
4464;SDS011;2245;48.136;13.428;2023-02-15T04:47:33;14.97;;;8.53;;
4464;SDS011;2245;48.136;13.428;2023-02-15T04:50:00;20.53;;;9.07;;
4464;SDS011;2245;48.136;13.428;2023-02-15T04:52:28;28.70;;;10.90;;
4464;SDS011;2245;48.136;13.428;2023-02-15T04:54:56;24.13;;;9.97;;
4464;SDS011;2245;48.136;13.428;2023-02-15T04:57:23;24.70;;;10.03;;
4464;SDS011;2245;48.136;13.428;2023-02-15T04:59:50;20.20;;;9.60;;
4464;SDS011;2245;48.136;13.428;2023-02-15T05:02:17;22.27;;;9.50;;
4464;SDS011;2245;48.136;13.428;2023-02-15T05:04:43;19.40;;;9.33;;
4464;SDS011;2245;48.136;13.428;2023-02-15T05:07:10;25.43;;;9.40;;
4464;SDS011;2245;48.136;13.428;2023-02-15T05:09:37;26.03;;;9.90;;
4464;SDS011;2245;48.136;13.428;2023-02-15T05:12:05;18.17;;;8.57;;
4464;SDS011;2245;48.136;13.428;2023-02-15T05:14:32;19.30;;;10.70;;
4464;SDS011;2245;48.136;13.428;2023-02-15T05:16:59;20.97;;;9.90;;
4464;SDS011;2245;48.136;13.428;2023-02-15T05:19:28;24.63;;;10.27;;
4464;SDS011;2245;48.136;13.428;2023-02-15T05:21:55;28.13;;;10.47;;
4464;SDS011;2245;48.136;13.428;2023-02-15T05:24:22;21.87;;;9.20;;
4464;SDS011;2245;48.136;13.428;2023-02-15T05:27:08;23.23;;;10.23;;
4464;SDS011;2245;48.136;13.428;2023-02-15T05:29:54;19.97;;;11.30;;
4464;SDS011;2245;48.136;13.428;2023-02-15T05:32:21;27.97;;;11.80;;
4464;SDS011;2245;48.136;13.428;2023-02-15T05:34:48;31.10;;;11.93;;
4464;SDS011;2245;48.136;13.428;2023-02-15T05:37:15;20.07;;;9.90;;
4464;SDS011;2245;48.136;13.428;2023-02-15T05:39:42;28.17;;;11.83;;
4464;SDS011;2245;48.136;13.428;2023-02-15T05:42:10;20.03;;;9.00;;
4464;SDS011;2245;48.136;13.428;2023-02-15T05:44:37;22.00;;;9.30;;
4464;SDS011;2245;48.136;13.428;2023-02-15T05:47:03;21.37;;;11.10;;
4464;SDS011;2245;48.136;13.428;2023-02-15T05:49:32;24.03;;;9.97;;
4464;SDS011;2245;48.136;13.428;2023-02-15T05:51:59;24.97;;;11.23;;
4464;SDS011;2245;48.136;13.428;2023-02-15T05:54:26;21.87;;;9.70;;
4464;SDS011;2245;48.136;13.428;2023-02-15T05:56:54;29.43;;;12.13;;
4464;SDS011;2245;48.136;13.428;2023-02-15T05:59:22;25.23;;;12.60;;
4464;SDS011;2245;48.136;13.428;2023-02-15T06:01:49;36.33;;;15.17;;
4464;SDS011;2245;48.136;13.428;2023-02-15T06:04:16;35.50;;;16.27;;
4464;SDS011;2245;48.136;13.428;2023-02-15T06:06:42;37.50;;;15.20;;
4464;SDS011;2245;48.136;13.428;2023-02-15T06:09:10;42.20;;;20.10;;
4464;SDS011;2245;48.136;13.428;2023-02-15T06:11:37;49.50;;;19.40;;
4464;SDS011;2245;48.136;13.428;2023-02-15T06:14:03;32.50;;;14.93;;
4464;SDS011;2245;48.136;13.428;2023-02-15T06:16:32;31.63;;;15.00;;
4464;SDS011;2245;48.136;13.428;2023-02-15T06:18:59;30.47;;;13.10;;
4464;SDS011;2245;48.136;13.428;2023-02-15T06:21:27;50.23;;;20.00;;
4464;SDS011;2245;48.136;13.428;2023-02-15T06:23:54;58.20;;;20.13;;
4464;SDS011;2245;48.136;13.428;2023-02-15T06:26:21;53.20;;;22.83;;
4464;SDS011;2245;48.136;13.428;2023-02-15T06:28:47;42.87;;;19.80;;
4464;SDS011;2245;48.136;13.428;2023-02-15T06:31:14;39.37;;;16.90;;
4464;SDS011;2245;48.136;13.428;2023-02-15T06:33:43;32.97;;;15.73;;
4464;SDS011;2245;48.136;13.428;2023-02-15T06:36:09;41.30;;;16.07;;
4464;SDS011;2245;48.136;13.428;2023-02-15T06:38:37;33.67;;;13.07;;
4464;SDS011;2245;48.136;13.428;2023-02-15T06:41:04;28.67;;;13.53;;
4464;SDS011;2245;48.136;13.428;2023-02-15T06:43:31;28.57;;;10.90;;
4464;SDS011;2245;48.136;13.428;2023-02-15T06:45:59;26.30;;;13.23;;
4464;SDS011;2245;48.136;13.428;2023-02-15T06:48:26;19.63;;;10.40;;
4464;SDS011;2245;48.136;13.428;2023-02-15T06:50:54;33.50;;;13.80;;
4464;SDS011;2245;48.136;13.428;2023-02-15T06:53:21;35.93;;;13.33;;
4464;SDS011;2245;48.136;13.428;2023-02-15T06:55:48;36.07;;;16.03;;
4464;SDS011;2245;48.136;13.428;2023-02-15T06:58:14;35.03;;;15.00;;
4464;SDS011;2245;48.136;13.428;2023-02-15T07:00:41;37.07;;;13.43;;
4464;SDS011;2245;48.136;13.428;2023-02-15T07:03:08;36.67;;;14.90;;
4464;SDS011;2245;48.136;13.428;2023-02-15T07:05:35;37.37;;;14.87;;
4464;SDS011;2245;48.136;13.428;2023-02-15T07:08:03;34.57;;;14.90;;
4464;SDS011;2245;48.136;13.428;2023-02-15T07:10:30;38.53;;;15.80;;
4464;SDS011;2245;48.136;13.428;2023-02-15T07:12:57;36.10;;;15.33;;
4464;SDS011;2245;48.136;13.428;2023-02-15T07:15:23;37.03;;;13.80;;
4464;SDS011;2245;48.136;13.428;2023-02-15T07:17:50;34.70;;;13.67;;
4464;SDS011;2245;48.136;13.428;2023-02-15T07:20:17;29.23;;;13.80;;
4464;SDS011;2245;48.136;13.428;2023-02-15T07:22:45;32.90;;;14.90;;
4464;SDS011;2245;48.136;13.428;2023-02-15T07:25:13;29.63;;;14.17;;
4464;SDS011;2245;48.136;13.428;2023-02-15T07:27:41;22.83;;;11.50;;
4464;SDS011;2245;48.136;13.428;2023-02-15T07:30:09;27.13;;;13.80;;
4464;SDS011;2245;48.136;13.428;2023-02-15T07:32:37;34.73;;;15.17;;
4464;SDS011;2245;48.136;13.428;2023-02-15T07:35:24;37.70;;;15.97;;
4464;SDS011;2245;48.136;13.428;2023-02-15T07:37:51;24.20;;;10.90;;
4464;SDS011;2245;48.136;13.428;2023-02-15T07:40:20;33.33;;;12.87;;
4464;SDS011;2245;48.136;13.428;2023-02-15T07:42:48;25.67;;;11.93;;
4464;SDS011;2245;48.136;13.428;2023-02-15T07:45:17;26.67;;;10.87;;
4464;SDS011;2245;48.136;13.428;2023-02-15T07:47:44;31.40;;;14.03;;
4464;SDS011;2245;48.136;13.428;2023-02-15T07:50:11;29.00;;;15.20;;
4464;SDS011;2245;48.136;13.428;2023-02-15T07:52:38;24.50;;;11.83;;
4464;SDS011;2245;48.136;13.428;2023-02-15T07:55:05;29.70;;;10.90;;
4464;SDS011;2245;48.136;13.428;2023-02-15T07:57:35;26.20;;;12.30;;
4464;SDS011;2245;48.136;13.428;2023-02-15T08:00:02;27.00;;;11.90;;
4464;SDS011;2245;48.136;13.428;2023-02-15T08:02:29;24.17;;;10.87;;
4464;SDS011;2245;48.136;13.428;2023-02-15T08:04:56;24.50;;;11.57;;
4464;SDS011;2245;48.136;13.428;2023-02-15T08:07:23;27.47;;;12.23;;
4464;SDS011;2245;48.136;13.428;2023-02-15T08:09:50;20.53;;;11.07;;
4464;SDS011;2245;48.136;13.428;2023-02-15T08:12:17;25.27;;;11.50;;
4464;SDS011;2245;48.136;13.428;2023-02-15T08:14:45;29.30;;;12.53;;
4464;SDS011;2245;48.136;13.428;2023-02-15T08:17:12;38.03;;;11.30;;
4464;SDS011;2245;48.136;13.428;2023-02-15T08:19:39;30.43;;;13.53;;
4464;SDS011;2245;48.136;13.428;2023-02-15T08:22:06;26.83;;;11.63;;
4464;SDS011;2245;48.136;13.428;2023-02-15T08:24:35;36.10;;;20.50;;
4464;SDS011;2245;48.136;13.428;2023-02-15T08:27:03;31.80;;;13.60;;
4464;SDS011;2245;48.136;13.428;2023-02-15T08:29:30;26.47;;;12.77;;
4464;SDS011;2245;48.136;13.428;2023-02-15T08:32:00;28.97;;;12.80;;
4464;SDS011;2245;48.136;13.428;2023-02-15T08:34:29;27.77;;;12.67;;
4464;SDS011;2245;48.136;13.428;2023-02-15T08:36:56;27.60;;;13.50;;
4464;SDS011;2245;48.136;13.428;2023-02-15T08:39:23;29.90;;;14.10;;
4464;SDS011;2245;48.136;13.428;2023-02-15T08:41:50;27.63;;;12.67;;
4464;SDS011;2245;48.136;13.428;2023-02-15T08:44:17;26.47;;;12.13;;
4464;SDS011;2245;48.136;13.428;2023-02-15T08:46:46;25.80;;;12.63;;
4464;SDS011;2245;48.136;13.428;2023-02-15T08:49:16;34.93;;;12.23;;
4464;SDS011;2245;48.136;13.428;2023-02-15T08:51:44;30.63;;;12.47;;
4464;SDS011;2245;48.136;13.428;2023-02-15T08:54:12;24.77;;;12.30;;
4464;SDS011;2245;48.136;13.428;2023-02-15T08:56:41;31.70;;;13.70;;
4464;SDS011;2245;48.136;13.428;2023-02-15T08:59:11;31.23;;;12.90;;
4464;SDS011;2245;48.136;13.428;2023-02-15T09:01:39;29.07;;;12.90;;
4464;SDS011;2245;48.136;13.428;2023-02-15T09:04:06;24.97;;;12.60;;
4464;SDS011;2245;48.136;13.428;2023-02-15T09:06:35;29.10;;;13.03;;
4464;SDS011;2245;48.136;13.428;2023-02-15T09:09:02;21.10;;;10.40;;
4464;SDS011;2245;48.136;13.428;2023-02-15T09:11:30;30.57;;;13.53;;
4464;SDS011;2245;48.136;13.428;2023-02-15T09:14:01;26.13;;;12.03;;
4464;SDS011;2245;48.136;13.428;2023-02-15T09:16:30;34.30;;;12.80;;
4464;SDS011;2245;48.136;13.428;2023-02-15T09:18:58;29.33;;;12.20;;
4464;SDS011;2245;48.136;13.428;2023-02-15T09:21:26;24.17;;;11.10;;
4464;SDS011;2245;48.136;13.428;2023-02-15T09:23:56;27.67;;;11.57;;
4464;SDS011;2245;48.136;13.428;2023-02-15T09:26:25;25.60;;;12.47;;
4464;SDS011;2245;48.136;13.428;2023-02-15T09:28:53;24.57;;;11.50;;
4464;SDS011;2245;48.136;13.428;2023-02-15T09:31:22;29.20;;;10.83;;
4464;SDS011;2245;48.136;13.428;2023-02-15T09:33:49;25.20;;;11.50;;
4464;SDS011;2245;48.136;13.428;2023-02-15T09:36:17;22.87;;;11.70;;
4464;SDS011;2245;48.136;13.428;2023-02-15T09:38:45;29.50;;;13.30;;
4464;SDS011;2245;48.136;13.428;2023-02-15T09:41:18;28.03;;;11.80;;
4464;SDS011;2245;48.136;13.428;2023-02-15T09:43:52;25.23;;;10.80;;
4464;SDS011;2245;48.136;13.428;2023-02-15T09:46:33;28.67;;;12.87;;
4464;SDS011;2245;48.136;13.428;2023-02-15T09:49:09;30.83;;;12.60;;
4464;SDS011;2245;48.136;13.428;2023-02-15T09:51:49;24.80;;;11.60;;
4464;SDS011;2245;48.136;13.428;2023-02-15T09:54:28;29.87;;;13.03;;
4464;SDS011;2245;48.136;13.428;2023-02-15T09:57:04;32.73;;;13.30;;
4464;SDS011;2245;48.136;13.428;2023-02-15T09:59:38;28.30;;;13.83;;
4464;SDS011;2245;48.136;13.428;2023-02-15T10:02:14;28.40;;;12.47;;
4464;SDS011;2245;48.136;13.428;2023-02-15T10:04:52;25.37;;;11.33;;
4464;SDS011;2245;48.136;13.428;2023-02-15T10:07:29;32.93;;;14.30;;
4464;SDS011;2245;48.136;13.428;2023-02-15T10:10:10;28.77;;;13.13;;
4464;SDS011;2245;48.136;13.428;2023-02-15T10:12:54;31.77;;;13.00;;
4464;SDS011;2245;48.136;13.428;2023-02-15T10:15:38;35.00;;;15.53;;
4464;SDS011;2245;48.136;13.428;2023-02-15T10:18:20;31.70;;;13.77;;
4464;SDS011;2245;48.136;13.428;2023-02-15T10:20:57;33.80;;;12.40;;
4464;SDS011;2245;48.136;13.428;2023-02-15T10:23:35;31.43;;;15.03;;
4464;SDS011;2245;48.136;13.428;2023-02-15T10:26:11;30.43;;;15.30;;
4464;SDS011;2245;48.136;13.428;2023-02-15T10:28:45;24.83;;;12.70;;
4464;SDS011;2245;48.136;13.428;2023-02-15T10:31:17;24.53;;;11.80;;
4464;SDS011;2245;48.136;13.428;2023-02-15T10:33:51;24.83;;;12.80;;
4464;SDS011;2245;48.136;13.428;2023-02-15T10:36:26;29.63;;;13.47;;
4464;SDS011;2245;48.136;13.428;2023-02-15T10:38:58;24.60;;;13.60;;
4464;SDS011;2245;48.136;13.428;2023-02-15T10:41:34;27.13;;;12.80;;
4464;SDS011;2245;48.136;13.428;2023-02-15T10:44:15;27.60;;;12.60;;
4464;SDS011;2245;48.136;13.428;2023-02-15T10:47:00;35.63;;;14.40;;
4464;SDS011;2245;48.136;13.428;2023-02-15T10:49:39;37.57;;;18.50;;
4464;SDS011;2245;48.136;13.428;2023-02-15T10:52:18;46.30;;;18.07;;
4464;SDS011;2245;48.136;13.428;2023-02-15T10:54:55;63.97;;;25.40;;
4464;SDS011;2245;48.136;13.428;2023-02-15T10:57:31;50.67;;;19.30;;
4464;SDS011;2245;48.136;13.428;2023-02-15T11:00:07;54.37;;;21.93;;
4464;SDS011;2245;48.136;13.428;2023-02-15T11:02:40;41.93;;;18.00;;
4464;SDS011;2245;48.136;13.428;2023-02-15T11:05:20;33.93;;;14.90;;
4464;SDS011;2245;48.136;13.428;2023-02-15T11:07:53;26.73;;;13.33;;
4464;SDS011;2245;48.136;13.428;2023-02-15T11:10:26;29.50;;;14.23;;
4464;SDS011;2245;48.136;13.428;2023-02-15T11:12:56;24.17;;;11.70;;
4464;SDS011;2245;48.136;13.428;2023-02-15T11:15:26;28.67;;;13.27;;
4464;SDS011;2245;48.136;13.428;2023-02-15T11:17:57;25.50;;;12.33;;
4464;SDS011;2245;48.136;13.428;2023-02-15T11:20:28;44.20;;;15.50;;
4464;SDS011;2245;48.136;13.428;2023-02-15T11:22:57;37.33;;;14.43;;
4464;SDS011;2245;48.136;13.428;2023-02-15T11:25:25;33.53;;;14.13;;
4464;SDS011;2245;48.136;13.428;2023-02-15T11:27:55;34.83;;;16.10;;
4464;SDS011;2245;48.136;13.428;2023-02-15T11:30:23;26.93;;;12.97;;
4464;SDS011;2245;48.136;13.428;2023-02-15T11:32:54;25.77;;;12.63;;
4464;SDS011;2245;48.136;13.428;2023-02-15T11:35:24;33.47;;;14.77;;
4464;SDS011;2245;48.136;13.428;2023-02-15T11:37:54;33.00;;;19.60;;
4464;SDS011;2245;48.136;13.428;2023-02-15T11:40:26;28.17;;;12.13;;
4464;SDS011;2245;48.136;13.428;2023-02-15T11:42:56;26.70;;;12.70;;
4464;SDS011;2245;48.136;13.428;2023-02-15T11:45:27;32.97;;;13.20;;
4464;SDS011;2245;48.136;13.428;2023-02-15T11:47:55;28.37;;;13.20;;
4464;SDS011;2245;48.136;13.428;2023-02-15T11:50:23;29.57;;;13.17;;
4464;SDS011;2245;48.136;13.428;2023-02-15T11:52:51;26.80;;;14.23;;
4464;SDS011;2245;48.136;13.428;2023-02-15T11:55:20;37.40;;;16.00;;
4464;SDS011;2245;48.136;13.428;2023-02-15T11:57:49;27.60;;;13.23;;
4464;SDS011;2245;48.136;13.428;2023-02-15T12:00:23;25.03;;;12.73;;
4464;SDS011;2245;48.136;13.428;2023-02-15T12:03:00;29.47;;;13.63;;
4464;SDS011;2245;48.136;13.428;2023-02-15T12:05:30;33.33;;;13.83;;
4464;SDS011;2245;48.136;13.428;2023-02-15T12:08:00;30.60;;;12.50;;
4464;SDS011;2245;48.136;13.428;2023-02-15T12:10:29;30.30;;;14.97;;
4464;SDS011;2245;48.136;13.428;2023-02-15T12:15:47;33.83;;;14.07;;
4464;SDS011;2245;48.136;13.428;2023-02-15T12:18:17;36.10;;;14.63;;
4464;SDS011;2245;48.136;13.428;2023-02-15T12:20:47;36.77;;;15.30;;
4464;SDS011;2245;48.136;13.428;2023-02-15T12:23:15;32.07;;;16.40;;
4464;SDS011;2245;48.136;13.428;2023-02-15T12:25:48;33.80;;;13.90;;
4464;SDS011;2245;48.136;13.428;2023-02-15T12:28:21;40.37;;;15.93;;
4464;SDS011;2245;48.136;13.428;2023-02-15T12:30:53;28.90;;;13.70;;
4464;SDS011;2245;48.136;13.428;2023-02-15T12:33:24;38.10;;;16.33;;
4464;SDS011;2245;48.136;13.428;2023-02-15T12:35:57;31.73;;;13.80;;
4464;SDS011;2245;48.136;13.428;2023-02-15T12:38:26;26.37;;;13.50;;
4464;SDS011;2245;48.136;13.428;2023-02-15T12:40:58;35.20;;;13.77;;
4464;SDS011;2245;48.136;13.428;2023-02-15T12:43:27;26.50;;;13.17;;
4464;SDS011;2245;48.136;13.428;2023-02-15T12:46:03;33.57;;;15.63;;
4464;SDS011;2245;48.136;13.428;2023-02-15T12:48:40;30.50;;;13.43;;
4464;SDS011;2245;48.136;13.428;2023-02-15T12:51:08;35.47;;;14.53;;
4464;SDS011;2245;48.136;13.428;2023-02-15T12:53:37;33.83;;;13.17;;
4464;SDS011;2245;48.136;13.428;2023-02-15T12:56:06;34.20;;;15.47;;
4464;SDS011;2245;48.136;13.428;2023-02-15T12:58:34;31.57;;;15.20;;
4464;SDS011;2245;48.136;13.428;2023-02-15T13:01:10;35.57;;;16.97;;
4464;SDS011;2245;48.136;13.428;2023-02-15T13:03:54;32.67;;;15.40;;
4464;SDS011;2245;48.136;13.428;2023-02-15T13:06:22;37.97;;;16.90;;
4464;SDS011;2245;48.136;13.428;2023-02-15T13:08:50;32.30;;;17.20;;
4464;SDS011;2245;48.136;13.428;2023-02-15T13:11:19;32.97;;;12.53;;
4464;SDS011;2245;48.136;13.428;2023-02-15T13:13:50;34.67;;;14.73;;
4464;SDS011;2245;48.136;13.428;2023-02-15T13:16:20;33.13;;;14.23;;
4464;SDS011;2245;48.136;13.428;2023-02-15T13:18:51;60.77;;;16.60;;
4464;SDS011;2245;48.136;13.428;2023-02-15T13:21:19;35.80;;;14.83;;
4464;SDS011;2245;48.136;13.428;2023-02-15T13:23:49;36.50;;;15.97;;
4464;SDS011;2245;48.136;13.428;2023-02-15T13:26:19;40.50;;;18.37;;
4464;SDS011;2245;48.136;13.428;2023-02-15T13:28:48;37.27;;;15.57;;
4464;SDS011;2245;48.136;13.428;2023-02-15T13:31:17;34.40;;;16.27;;
4464;SDS011;2245;48.136;13.428;2023-02-15T13:33:48;42.27;;;17.00;;
4464;SDS011;2245;48.136;13.428;2023-02-15T13:36:19;33.53;;;15.63;;
4464;SDS011;2245;48.136;13.428;2023-02-15T13:38:52;35.70;;;16.30;;
4464;SDS011;2245;48.136;13.428;2023-02-15T13:41:25;39.90;;;17.00;;
4464;SDS011;2245;48.136;13.428;2023-02-15T13:43:58;35.33;;;16.53;;
4464;SDS011;2245;48.136;13.428;2023-02-15T13:46:51;40.87;;;16.10;;
4464;SDS011;2245;48.136;13.428;2023-02-15T13:49:28;38.10;;;16.13;;
4464;SDS011;2245;48.136;13.428;2023-02-15T13:52:04;35.70;;;16.00;;
4464;SDS011;2245;48.136;13.428;2023-02-15T13:54:46;53.47;;;15.83;;
4464;SDS011;2245;48.136;13.428;2023-02-15T13:57:38;35.83;;;16.83;;
4464;SDS011;2245;48.136;13.428;2023-02-15T14:00:13;32.30;;;16.27;;
4464;SDS011;2245;48.136;13.428;2023-02-15T14:03:04;44.23;;;15.70;;
4464;SDS011;2245;48.136;13.428;2023-02-15T14:08:44;40.30;;;18.07;;
4464;SDS011;2245;48.136;13.428;2023-02-15T14:11:19;39.77;;;15.80;;
4464;SDS011;2245;48.136;13.428;2023-02-15T14:14:03;46.07;;;17.27;;
4464;SDS011;2245;48.136;13.428;2023-02-15T14:16:53;34.27;;;14.87;;
4464;SDS011;2245;48.136;13.428;2023-02-15T14:19:25;36.17;;;16.23;;
4464;SDS011;2245;48.136;13.428;2023-02-15T14:21:58;44.83;;;18.00;;
4464;SDS011;2245;48.136;13.428;2023-02-15T14:24:29;37.17;;;16.10;;
4464;SDS011;2245;48.136;13.428;2023-02-15T14:27:03;37.60;;;14.80;;
4464;SDS011;2245;48.136;13.428;2023-02-15T14:29:42;33.67;;;15.10;;
4464;SDS011;2245;48.136;13.428;2023-02-15T14:32:16;35.47;;;15.43;;
4464;SDS011;2245;48.136;13.428;2023-02-15T14:34:48;33.93;;;15.97;;
4464;SDS011;2245;48.136;13.428;2023-02-15T14:37:18;39.83;;;16.20;;
4464;SDS011;2245;48.136;13.428;2023-02-15T14:39:52;39.50;;;17.00;;
4464;SDS011;2245;48.136;13.428;2023-02-15T14:42:40;38.10;;;15.43;;
4464;SDS011;2245;48.136;13.428;2023-02-15T14:45:15;38.07;;;17.50;;
4464;SDS011;2245;48.136;13.428;2023-02-15T14:47:46;46.47;;;15.83;;
4464;SDS011;2245;48.136;13.428;2023-02-15T14:53:32;36.90;;;16.23;;
4464;SDS011;2245;48.136;13.428;2023-02-15T14:56:13;38.30;;;15.37;;
4464;SDS011;2245;48.136;13.428;2023-02-15T14:58:54;48.63;;;17.53;;
4464;SDS011;2245;48.136;13.428;2023-02-15T15:01:24;57.17;;;17.20;;
4464;SDS011;2245;48.136;13.428;2023-02-15T15:03:53;38.27;;;15.90;;
4464;SDS011;2245;48.136;13.428;2023-02-15T15:06:25;54.73;;;17.27;;
4464;SDS011;2245;48.136;13.428;2023-02-15T15:08:54;74.10;;;18.80;;